Time;durP1;ratioP1;P1;durP2;ratioP2;P2;SDS_P1;SDS_P2;PMS_P1;PMS_P2;Temp;Humidity;BMP_temperature;BMP_pressure;BME280_temperature;BME280_humidity;BME280_pressure;Samples;Min_cycle;Max_cycle;Signal;HPM_P1;HPM_P2
2023/01/14 00:00:16;;;;;;;7.28;1.08;;;7.70;99.90;;;;;;5008827;28;20340;-36
2023/01/14 00:02:41;;;;;;;12.00;1.55;;;7.70;99.90;;;;;;5009336;28;20042;-36
2023/01/14 00:05:08;;;;;;;9.82;1.05;;;7.70;99.90;;;;;;5011210;28;20044;-38
2023/01/14 00:07:33;;;;;;;9.45;1.85;;;7.70;99.90;;;;;;5011291;28;20072;-38
2023/01/14 00:09:59;;;;;;;12.18;1.30;;;7.70;99.90;;;;;;5012031;28;20042;-38
2023/01/14 00:12:25;;;;;;;7.25;1.30;;;7.70;99.90;;;;;;5011155;28;20053;-36
2023/01/14 00:14:50;;;;;;;11.02;1.30;;;7.70;99.90;;;;;;5005535;28;20041;-38
2023/01/14 00:17:16;;;;;;;13.73;1.88;;;7.70;99.90;;;;;;5010560;28;20065;-37
2023/01/14 00:19:42;;;;;;;10.57;1.30;;;7.60;99.90;;;;;;5011282;28;20076;-36
2023/01/14 00:22:08;;;;;;;7.47;1.17;;;7.60;99.90;;;;;;4997149;28;20467;-36
2023/01/14 00:24:33;;;;;;;14.00;1.65;;;7.60;99.90;;;;;;5012254;28;20053;-35
2023/01/14 00:26:59;;;;;;;13.40;1.25;;;7.60;99.90;;;;;;5015583;28;20080;-36
2023/01/14 00:29:30;;;;;;;6.35;1.08;;;7.50;99.90;;;;;;5016029;28;20520;-35
2023/01/14 00:31:58;;;;;;;7.82;1.15;;;7.50;99.90;;;;;;5008871;28;20109;-37
2023/01/14 00:34:26;;;;;;;7.30;1.30;;;7.40;99.90;;;;;;5008517;28;20112;-36
2023/01/14 00:36:52;;;;;;;18.70;2.17;;;7.40;99.90;;;;;;5011508;28;20054;-38
2023/01/14 00:39:18;;;;;;;6.95;1.60;;;7.50;99.90;;;;;;5009866;28;20038;-35
2023/01/14 00:41:44;;;;;;;10.68;1.35;;;7.50;99.90;;;;;;5010402;28;20045;-35
2023/01/14 00:44:09;;;;;;;9.70;1.38;;;7.50;99.90;;;;;;5011958;28;20095;-37
2023/01/14 00:46:37;;;;;;;8.70;1.48;;;7.40;99.90;;;;;;5012558;28;20037;-35
2023/01/14 00:49:04;;;;;;;6.90;1.02;;;7.40;99.90;;;;;;5010142;28;20076;-35
2023/01/14 00:51:31;;;;;;;7.82;1.30;;;7.40;99.90;;;;;;5012446;28;20074;-36
2023/01/14 00:53:58;;;;;;;7.68;0.98;;;7.40;99.90;;;;;;5011473;28;20040;-35
2023/01/14 00:56:24;;;;;;;9.93;1.10;;;7.40;99.90;;;;;;4990853;28;20037;-40
2023/01/14 00:58:50;;;;;;;8.38;1.13;;;7.40;99.90;;;;;;5009393;28;20569;-35
2023/01/14 01:01:16;;;;;;;5.60;1.23;;;7.50;99.90;;;;;;5009783;28;20037;-36
2023/01/14 01:03:45;;;;;;;9.57;1.30;;;7.50;99.90;;;;;;5008299;28;20041;-42
2023/01/14 01:06:13;;;;;;;11.82;1.38;;;7.50;99.90;;;;;;5013651;28;20124;-35
2023/01/14 01:08:39;;;;;;;12.32;1.20;;;7.50;99.90;;;;;;5008480;28;20046;-35
2023/01/14 01:11:05;;;;;;;9.07;1.00;;;7.60;99.90;;;;;;5008493;28;20042;-39
2023/01/14 01:13:30;;;;;;;12.73;1.25;;;7.60;99.90;;;;;;5009090;28;20040;-35
2023/01/14 01:16:02;;;;;;;18.00;1.85;;;7.60;99.90;;;;;;5013980;28;20041;-35
2023/01/14 01:18:28;;;;;;;12.13;1.25;;;7.60;99.90;;;;;;5011960;28;20434;-39
2023/01/14 01:21:05;;;;;;;11.13;1.40;;;7.60;99.90;;;;;;5007009;28;20046;-35
2023/01/14 01:23:32;;;;;;;6.97;1.30;;;7.60;99.90;;;;;;5010123;28;20037;-35
2023/01/14 01:25:59;;;;;;;10.60;1.42;;;7.70;99.90;;;;;;4996449;28;20049;-37
2023/01/14 01:28:24;;;;;;;10.73;1.67;;;7.70;99.90;;;;;;5012064;28;20050;-37
2023/01/14 01:30:50;;;;;;;14.48;1.10;;;7.70;99.90;;;;;;5008909;28;20435;-36
2023/01/14 01:33:16;;;;;;;8.13;1.23;;;7.70;99.90;;;;;;5008714;28;20046;-35
2023/01/14 01:35:41;;;;;;;14.57;1.48;;;7.70;99.90;;;;;;5011051;28;20159;-38
2023/01/14 01:38:07;;;;;;;9.98;1.42;;;7.70;99.90;;;;;;5009080;28;20096;-37
2023/01/14 01:40:33;;;;;;;11.70;2.03;;;7.70;99.90;;;;;;5008517;28;20741;-35
2023/01/14 01:43:00;;;;;;;8.40;0.98;;;7.70;99.90;;;;;;5008898;28;20314;-35
2023/01/14 01:45:29;;;;;;;9.70;2.03;;;7.70;99.90;;;;;;5010239;28;20463;-35
2023/01/14 01:48:10;;;;;;;7.43;1.20;;;7.70;99.90;;;;;;5010861;28;20041;-37
2023/01/14 01:50:36;;;;;;;11.00;2.28;;;7.70;99.90;;;;;;5009426;28;20038;-36
2023/01/14 01:53:04;;;;;;;7.00;0.90;;;7.70;99.90;;;;;;5007401;28;20184;-37
2023/01/14 01:55:34;;;;;;;12.00;1.52;;;7.70;99.90;;;;;;5014929;28;20843;-38
2023/01/14 01:58:01;;;;;;;8.52;1.48;;;7.80;99.90;;;;;;5006564;28;20062;-36
2023/01/14 02:00:27;;;;;;;7.97;1.73;;;7.80;99.90;;;;;;5008403;28;20499;-36
2023/01/14 02:03:08;;;;;;;11.50;1.33;;;7.80;99.90;;;;;;4988547;28;20050;-36
2023/01/14 02:05:34;;;;;;;8.10;0.80;;;7.70;99.90;;;;;;5014280;28;20040;-35
2023/01/14 02:08:01;;;;;;;10.73;0.98;;;7.60;99.90;;;;;;5012966;28;20041;-36
2023/01/14 02:10:57;;;;;;;10.70;2.55;;;7.60;99.90;;;;;;5009783;28;20168;-36
2023/01/14 02:13:44;;;;;;;10.27;0.98;;;7.50;99.90;;;;;;4963846;28;20495;-36
2023/01/14 02:16:15;;;;;;;12.90;1.52;;;7.40;99.90;;;;;;5002045;28;20050;-35
2023/01/14 02:18:52;;;;;;;10.63;1.48;;;7.30;99.90;;;;;;5006111;28;21767;-37
2023/01/14 02:21:25;;;;;;;5.93;0.68;;;7.20;99.90;;;;;;5005810;28;20419;-37
2023/01/14 02:24:28;;;;;;;8.15;1.30;;;7.00;99.90;;;;;;5012579;28;20053;-37
2023/01/14 02:27:00;;;;;;;9.77;1.10;;;6.90;99.90;;;;;;4989677;28;20046;-36
2023/01/14 02:30:06;;;;;;;10.18;1.15;;;6.80;99.90;;;;;;5009539;28;21248;-36
2023/01/14 02:32:51;;;;;;;5.95;0.90;;;6.70;99.90;;;;;;5005092;28;20053;-38
2023/01/14 02:35:30;;;;;;;10.18;1.92;;;6.60;99.90;;;;;;4997836;28;20082;-36
2023/01/14 02:38:16;;;;;;;7.65;1.02;;;6.50;99.90;;;;;;4988547;28;20054;-36
2023/01/14 02:41:06;;;;;;;8.35;1.10;;;6.50;99.90;;;;;;4991078;28;20034;-36
2023/01/14 02:46:32;;;;;;;10.90;1.65;;;6.30;99.90;;;;;;4994336;28;20089;-36
2023/01/14 02:49:02;;;;;;;7.20;1.23;;;6.20;99.90;;;;;;4992001;28;20105;-36
2023/01/14 02:51:28;;;;;;;7.13;0.95;;;6.10;99.90;;;;;;4992419;28;20042;-36
2023/01/14 02:53:53;;;;;;;8.07;0.80;;;6.00;99.90;;;;;;4992037;28;20084;-36
2023/01/14 02:56:19;;;;;;;9.52;0.75;;;5.90;99.90;;;;;;4989746;28;20030;-36
2023/01/14 02:59:12;;;;;;;7.88;2.25;;;5.90;99.90;;;;;;4992471;28;20476;-35
2023/01/14 03:02:00;;;;;;;6.90;1.08;;;5.80;99.90;;;;;;4990410;28;20046;-35
2023/01/14 03:05:03;;;;;;;4.63;1.13;;;5.70;99.90;;;;;;4991512;28;20065;-35
2023/01/14 03:07:50;;;;;;;5.22;0.93;;;5.70;99.90;;;;;;4989270;28;20091;-36
2023/01/14 03:10:28;;;;;;;8.23;1.30;;;5.60;99.90;;;;;;4989193;28;20493;-36
2023/01/14 03:13:28;;;;;;;5.78;0.90;;;5.60;99.90;;;;;;4972390;28;20506;-36
2023/01/14 03:15:56;;;;;;;10.63;0.98;;;5.60;99.90;;;;;;4986641;28;20048;-36
2023/01/14 03:18:35;;;;;;;25.83;1.25;;;5.60;99.90;;;;;;4991649;28;20053;-37
2023/01/14 03:21:04;;;;;;;7.20;1.00;;;5.60;99.90;;;;;;4994099;28;20054;-36
2023/01/14 03:23:35;;;;;;;11.45;1.20;;;5.60;99.90;;;;;;4990240;28;20050;-36
2023/01/14 03:26:05;;;;;;;10.23;1.00;;;5.70;99.90;;;;;;4993904;28;20049;-36
2023/01/14 03:28:34;;;;;;;10.93;1.25;;;5.70;99.90;;;;;;4989489;28;20137;-36
2023/01/14 03:31:08;;;;;;;5.68;1.27;;;5.70;99.90;;;;;;4989737;28;20113;-37
2023/01/14 03:33:39;;;;;;;12.73;1.23;;;5.80;99.90;;;;;;4988280;28;20495;-36
2023/01/14 03:36:06;;;;;;;7.57;1.33;;;5.80;99.90;;;;;;5005694;28;20384;-36
2023/01/14 03:38:41;;;;;;;7.45;0.70;;;5.70;99.90;;;;;;5007872;28;20038;-36
2023/01/14 03:41:10;;;;;;;9.75;1.08;;;5.70;99.90;;;;;;5007797;28;20053;-35
2023/01/14 03:43:51;;;;;;;10.65;1.00;;;5.70;99.90;;;;;;5007590;28;20097;-35
2023/01/14 03:46:17;;;;;;;8.80;1.08;;;5.60;99.90;;;;;;5007950;28;20050;-37
2023/01/14 03:48:43;;;;;;;8.88;1.08;;;5.60;99.90;;;;;;5009524;28;20487;-36
2023/01/14 03:51:34;;;;;;;9.32;1.20;;;5.50;99.90;;;;;;5005546;28;20033;-35
2023/01/14 03:54:10;;;;;;;9.57;1.58;;;5.50;99.90;;;;;;5003289;28;20034;-35
2023/01/14 03:56:48;;;;;;;10.55;1.05;;;5.40;99.90;;;;;;5006355;28;20041;-36
2023/01/14 03:59:20;;;;;;;10.23;1.33;;;5.40;99.90;;;;;;5006832;28;20038;-35
2023/01/14 04:01:51;;;;;;;6.55;1.08;;;5.40;99.90;;;;;;5004526;28;20419;-35
2023/01/14 04:04:17;;;;;;;6.43;1.40;;;5.40;99.90;;;;;;5007357;28;20052;-39
2023/01/14 04:06:43;;;;;;;7.20;0.95;;;5.40;99.90;;;;;;5006882;28;20041;-36
2023/01/14 04:09:09;;;;;;;7.63;0.85;;;5.40;99.90;;;;;;5007119;28;20050;-35
2023/01/14 04:11:36;;;;;;;6.85;0.80;;;5.40;99.90;;;;;;5008606;28;20376;-35
2023/01/14 04:16:47;;;;;;;12.18;1.30;;;5.50;99.90;;;;;;5004072;28;20050;-39
2023/01/14 04:19:13;;;;;;;13.38;1.67;;;5.50;99.90;;;;;;5009668;28;20049;-36
2023/01/14 04:21:38;;;;;;;12.82;1.70;;;5.50;99.90;;;;;;5008221;28;20049;-36
2023/01/14 04:24:04;;;;;;;10.27;1.30;;;5.60;99.90;;;;;;5009403;28;20497;-37
2023/01/14 04:26:30;;;;;;;9.43;1.23;;;5.60;99.90;;;;;;5003578;28;20038;-35
2023/01/14 04:28:55;;;;;;;8.82;0.80;;;5.60;99.90;;;;;;5005646;28;20040;-35
2023/01/14 04:31:21;;;;;;;10.15;1.35;;;5.60;99.90;;;;;;5007910;28;20041;-36
2023/01/14 04:33:47;;;;;;;11.60;1.80;;;5.70;99.90;;;;;;5009458;28;20046;-38
2023/01/14 04:36:13;;;;;;;2.83;0.85;;;5.70;99.90;;;;;;4989764;28;20073;-36
2023/01/14 04:38:39;;;;;;;14.35;1.50;;;5.70;99.90;;;;;;4990186;28;20090;-36
2023/01/14 04:41:05;;;;;;;9.82;1.40;;;5.70;99.90;;;;;;4986802;28;20108;-38
2023/01/14 04:43:30;;;;;;;13.35;1.92;;;5.70;99.90;;;;;;4986849;28;20209;-35
2023/01/14 04:45:56;;;;;;;12.52;1.75;;;5.70;99.90;;;;;;4972077;28;20061;-35
2023/01/14 04:48:24;;;;;;;12.93;1.80;;;5.70;99.90;;;;;;4973537;28;20072;-38
2023/01/14 04:50:50;;;;;;;9.18;1.30;;;5.70;99.90;;;;;;4971072;28;20129;-36
2023/01/14 04:53:20;;;;;;;12.25;1.90;;;5.60;99.90;;;;;;4985198;28;21498;-35
2023/01/14 04:55:47;;;;;;;15.45;1.38;;;5.60;99.90;;;;;;4987026;28;20034;-39
2023/01/14 04:58:17;;;;;;;7.85;1.13;;;5.60;99.90;;;;;;4989357;28;20570;-35
2023/01/14 05:00:44;;;;;;;10.63;2.00;;;5.60;99.90;;;;;;4986201;28;20053;-35
2023/01/14 05:03:12;;;;;;;16.58;2.45;;;5.60;99.90;;;;;;4986152;28;20046;-37
2023/01/14 05:05:38;;;;;;;15.88;1.83;;;5.50;99.90;;;;;;4988093;28;20052;-44
2023/01/14 05:08:06;;;;;;;11.85;2.20;;;5.50;99.90;;;;;;4985995;28;20105;-36
2023/01/14 05:10:33;;;;;;;17.25;1.55;;;5.50;99.90;;;;;;4987310;28;20048;-37
2023/01/14 05:12:58;;;;;;;12.05;1.58;;;5.50;99.90;;;;;;4985694;28;20042;-36
2023/01/14 05:15:29;;;;;;;8.63;1.42;;;5.50;99.90;;;;;;4988864;28;20089;-35
2023/01/14 05:17:55;;;;;;;15.20;2.55;;;5.50;99.90;;;;;;4991284;28;20443;-40
2023/01/14 05:20:23;;;;;;;13.07;2.25;;;5.50;99.90;;;;;;4989294;28;20046;-36
2023/01/14 05:22:50;;;;;;;14.30;2.42;;;5.50;99.90;;;;;;4989360;28;20030;-36
2023/01/14 05:25:16;;;;;;;13.68;1.85;;;5.50;99.90;;;;;;4985805;28;20062;-36
2023/01/14 05:27:41;;;;;;;9.63;1.73;;;5.50;99.90;;;;;;4990980;28;20194;-37
2023/01/14 05:30:08;;;;;;;14.02;2.25;;;5.50;99.90;;;;;;4969286;28;20488;-39
2023/01/14 05:32:34;;;;;;;16.10;2.45;;;5.50;99.90;;;;;;4984843;28;20049;-35
2023/01/14 05:35:00;;;;;;;11.73;2.15;;;5.50;99.90;;;;;;4996785;28;20410;-36
2023/01/14 05:37:26;;;;;;;13.95;2.00;;;5.50;99.90;;;;;;5004761;28;20048;-36
2023/01/14 05:39:51;;;;;;;17.15;3.53;;;5.50;99.90;;;;;;5009852;28;20553;-36
2023/01/14 05:47:45;;;;;;;16.55;4.05;;;5.50;99.90;;;;;;5005562;28;20136;-45
2023/01/14 05:50:12;;;;;;;12.93;2.58;;;5.50;99.90;;;;;;5003489;28;20048;-36
2023/01/14 05:52:38;;;;;;;20.40;4.05;;;5.50;99.90;;;;;;5004059;28;20165;-36
2023/01/14 05:55:04;;;;;;;15.02;3.30;;;5.50;99.90;;;;;;5006970;28;20077;-36
2023/01/14 05:57:31;;;;;;;19.30;3.15;;;5.60;99.90;;;;;;5009617;28;20416;-36
2023/01/14 05:59:57;;;;;;;24.10;3.38;;;5.60;99.90;;;;;;5008098;28;20088;-39
2023/01/14 06:07:55;;;;;;;18.60;3.30;;;5.60;99.90;;;;;;5006771;28;20507;-35
2023/01/14 06:10:24;;;;;;;17.77;2.85;;;5.60;99.90;;;;;;5007202;28;20061;-35
2023/01/14 06:13:03;;;;;;;15.48;2.72;;;5.70;99.90;;;;;;4986161;28;20519;-35
2023/01/14 06:15:34;;;;;;;17.90;2.88;;;5.60;99.90;;;;;;5005191;28;20096;-37
2023/01/14 06:18:15;;;;;;;16.40;2.22;;;5.70;99.90;;;;;;5009122;28;20073;-36
2023/01/14 06:20:44;;;;;;;19.05;2.70;;;5.60;99.90;;;;;;5005235;28;20049;-38
2023/01/14 06:23:09;;;;;;;11.77;2.28;;;5.60;99.90;;;;;;5005515;28;20040;-36
2023/01/14 06:25:36;;;;;;;28.75;2.58;;;5.60;99.90;;;;;;5006914;28;20041;-36
2023/01/14 06:28:01;;;;;;;20.48;2.50;;;5.60;99.90;;;;;;5007728;28;20096;-35
2023/01/14 06:30:28;;;;;;;18.55;3.65;;;5.60;99.90;;;;;;5007296;28;20500;-35
2023/01/14 06:32:55;;;;;;;10.10;2.28;;;5.60;99.90;;;;;;5008784;28;20049;-36
2023/01/14 06:35:22;;;;;;;17.75;2.70;;;5.60;99.90;;;;;;5010312;28;20052;-35
2023/01/14 06:37:47;;;;;;;13.20;2.03;;;5.60;99.90;;;;;;5005344;28;20573;-36
2023/01/14 06:40:14;;;;;;;24.02;3.05;;;5.60;99.90;;;;;;5007027;28;20049;-40
2023/01/14 06:42:40;;;;;;;15.38;2.42;;;5.60;99.90;;;;;;5009343;28;20034;-35
2023/01/14 06:45:07;;;;;;;17.02;2.97;;;5.60;99.90;;;;;;5005700;28;20057;-35
2023/01/14 06:47:33;;;;;;;14.10;2.85;;;5.70;99.90;;;;;;5005218;28;20042;-37
2023/01/14 06:49:59;;;;;;;10.15;2.85;;;5.70;99.90;;;;;;5001168;28;20161;-36
2023/01/14 06:52:25;;;;;;;18.05;2.85;;;5.70;99.90;;;;;;5005199;28;20108;-35
2023/01/14 06:54:52;;;;;;;18.67;3.30;;;5.70;99.90;;;;;;5006534;28;20041;-35
2023/01/14 06:57:19;;;;;;;14.18;1.88;;;5.70;99.90;;;;;;5006508;28;20038;-37
2023/01/14 06:59:44;;;;;;;15.80;2.33;;;5.80;99.90;;;;;;4990087;28;20050;-35
2023/01/14 07:02:11;;;;;;;15.50;2.30;;;5.70;99.90;;;;;;5005280;28;20045;-39
2023/01/14 07:04:37;;;;;;;27.40;3.03;;;5.80;99.90;;;;;;5003053;28;20037;-34
2023/01/14 07:07:03;;;;;;;15.48;4.05;;;5.80;99.90;;;;;;5010739;28;20396;-37
2023/01/14 07:09:29;;;;;;;19.38;2.83;;;5.70;99.90;;;;;;5010477;28;20539;-35
2023/01/14 07:11:55;;;;;;;14.63;3.90;;;5.80;99.90;;;;;;5009482;28;20065;-35
2023/01/14 07:14:20;;;;;;;21.30;2.38;;;5.80;99.90;;;;;;5011037;28;20529;-35
2023/01/14 07:16:46;;;;;;;21.33;3.38;;;5.80;99.90;;;;;;5005841;28;20124;-35
2023/01/14 07:19:12;;;;;;;20.70;2.72;;;5.80;99.90;;;;;;5009622;28;20180;-37
2023/01/14 07:21:38;;;;;;;14.15;2.60;;;5.90;99.90;;;;;;5007518;28;20038;-35
2023/01/14 07:24:05;;;;;;;25.40;3.47;;;5.80;99.90;;;;;;5007095;28;20045;-36
2023/01/14 07:26:30;;;;;;;20.23;3.03;;;5.90;99.90;;;;;;5006437;28;20041;-37
2023/01/14 07:28:56;;;;;;;15.35;2.50;;;5.90;99.90;;;;;;4993555;28;20096;-35
2023/01/14 07:31:22;;;;;;;18.85;2.50;;;5.90;99.90;;;;;;5007541;28;20573;-35
2023/01/14 07:33:48;;;;;;;11.70;2.25;;;5.90;99.90;;;;;;5006309;28;20048;-37
2023/01/14 07:36:13;;;;;;;15.75;2.58;;;6.00;99.90;;;;;;5005143;28;20111;-36
2023/01/14 07:38:39;;;;;;;12.45;1.98;;;5.90;99.90;;;;;;5010166;28;20046;-36
2023/01/14 07:41:17;;;;;;;18.13;2.33;;;6.00;99.90;;;;;;5009555;28;20479;-37
2023/01/14 07:43:44;;;;;;;12.95;1.85;;;6.00;99.90;;;;;;5008658;28;20107;-37
2023/01/14 07:46:10;;;;;;;16.63;2.22;;;6.00;99.90;;;;;;5009934;28;20042;-37
2023/01/14 07:48:35;;;;;;;19.60;2.45;;;6.00;99.90;;;;;;5007954;28;20046;-36
2023/01/14 07:51:06;;;;;;;8.57;1.80;;;6.00;99.90;;;;;;5009463;28;20038;-36
2023/01/14 07:53:32;;;;;;;12.05;1.55;;;6.00;99.90;;;;;;5011137;28;20578;-35
2023/01/14 07:56:02;;;;;;;13.55;2.47;;;6.00;99.90;;;;;;5007944;28;20092;-40
2023/01/14 07:58:27;;;;;;;12.95;1.95;;;6.00;99.90;;;;;;5008569;28;20052;-36
2023/01/14 08:00:53;;;;;;;9.60;2.17;;;6.00;99.90;;;;;;5010229;28;20038;-36
2023/01/14 08:03:20;;;;;;;15.30;1.63;;;6.00;99.90;;;;;;5006863;28;20046;-37
2023/01/14 08:05:46;;;;;;;10.32;1.60;;;6.00;99.90;;;;;;5008803;28;20415;-36
2023/01/14 08:08:12;;;;;;;14.45;1.83;;;6.00;99.90;;;;;;5009221;28;20041;-36
2023/01/14 08:10:38;;;;;;;14.27;2.00;;;6.00;99.90;;;;;;5008780;28;20450;-37
2023/01/14 08:13:04;;;;;;;10.45;1.75;;;6.00;99.90;;;;;;5008553;28;20863;-36
2023/01/14 08:15:30;;;;;;;12.05;1.70;;;6.00;99.90;;;;;;5008738;28;20399;-38
2023/01/14 08:17:56;;;;;;;20.13;2.33;;;6.00;99.90;;;;;;5010931;28;20448;-37
2023/01/14 08:20:22;;;;;;;14.00;1.50;;;6.00;99.90;;;;;;5009090;28;20046;-36
2023/01/14 08:22:57;;;;;;;16.75;1.88;;;6.00;99.90;;;;;;5012112;28;20052;-36
2023/01/14 08:25:23;;;;;;;8.02;1.48;;;6.10;99.90;;;;;;5006815;28;20073;-36
2023/01/14 08:27:49;;;;;;;13.88;2.05;;;6.10;99.90;;;;;;5005902;28;20141;-37
2023/01/14 08:30:18;;;;;;;8.13;1.40;;;6.10;99.90;;;;;;5000290;28;20048;-37
2023/01/14 08:32:44;;;;;;;11.43;1.67;;;6.10;99.90;;;;;;5009394;28;20041;-37
2023/01/14 08:35:10;;;;;;;12.45;2.15;;;6.10;99.90;;;;;;5010185;28;20507;-37
2023/01/14 08:37:36;;;;;;;16.08;1.98;;;6.10;99.90;;;;;;5002058;28;20046;-36
2023/01/14 08:40:02;;;;;;;10.82;2.28;;;6.10;99.90;;;;;;5005751;28;20042;-36
2023/01/14 08:42:28;;;;;;;16.88;2.13;;;6.10;99.90;;;;;;5007848;28;20045;-36
2023/01/14 08:44:54;;;;;;;18.95;1.92;;;6.10;99.90;;;;;;5006398;28;20100;-36
2023/01/14 08:47:19;;;;;;;9.88;1.52;;;6.10;99.90;;;;;;5004275;28;20398;-38
2023/01/14 08:49:45;;;;;;;12.75;2.55;;;6.10;99.90;;;;;;5008348;28;20037;-36
2023/01/14 08:52:11;;;;;;;11.10;1.63;;;6.20;99.90;;;;;;5011883;28;20033;-36
2023/01/14 08:54:37;;;;;;;12.20;1.77;;;6.20;99.90;;;;;;5009432;28;20120;-37
2023/01/14 08:57:03;;;;;;;10.80;1.60;;;6.20;99.90;;;;;;5003909;28;20079;-37
2023/01/14 08:59:29;;;;;;;13.38;2.75;;;6.20;99.90;;;;;;5006791;28;20049;-34
2023/01/14 09:01:55;;;;;;;16.17;1.75;;;6.20;99.90;;;;;;5011434;28;20478;-34
2023/01/14 09:04:22;;;;;;;13.25;2.80;;;6.20;99.90;;;;;;5006116;28;20033;-33
2023/01/14 09:17:57;;;;;;;7.18;1.90;;;6.30;99.90;;;;;;5009779;28;20555;-34
2023/01/14 09:20:28;;;;;;;4.13;1.25;;;6.40;99.90;;;;;;5009112;28;20046;-37
2023/01/14 09:22:54;;;;;;;6.93;1.40;;;6.40;99.90;;;;;;5004620;28;20050;-37
2023/01/14 09:25:20;;;;;;;7.72;1.23;;;6.40;99.90;;;;;;5005172;28;20103;-35
2023/01/14 09:27:46;;;;;;;5.53;1.45;;;6.40;99.90;;;;;;5005138;28;20034;-34
2023/01/14 09:30:12;;;;;;;5.05;1.33;;;6.40;99.90;;;;;;5010498;28;20052;-33
2023/01/14 09:32:39;;;;;;;8.35;2.22;;;6.40;99.90;;;;;;4995447;28;20119;-36
2023/01/14 09:35:06;;;;;;;6.53;1.27;;;6.50;99.90;;;;;;5007396;28;20053;-35
2023/01/14 09:37:33;;;;;;;7.95;1.42;;;6.50;99.90;;;;;;5008829;28;20073;-35
2023/01/14 09:40:00;;;;;;;6.78;2.05;;;6.50;99.90;;;;;;5010216;28;20042;-34
2023/01/14 09:42:34;;;;;;;5.25;1.02;;;6.50;99.90;;;;;;5011014;28;20041;-35
2023/01/14 09:45:24;;;;;;;6.32;1.00;;;6.60;99.90;;;;;;5008798;28;20068;-36
2023/01/14 09:47:51;;;;;;;8.77;1.73;;;6.60;99.90;;;;;;5007161;28;20054;-36
2023/01/14 09:50:38;;;;;;;7.22;1.20;;;6.60;99.90;;;;;;5009164;28;20128;-35
2023/01/14 09:53:12;;;;;;;5.45;1.15;;;6.60;99.90;;;;;;5008013;28;20076;-34
2023/01/14 09:55:48;;;;;;;8.90;1.15;;;6.60;99.90;;;;;;5011835;28;20152;-35
2023/01/14 09:58:36;;;;;;;4.28;1.38;;;6.60;99.90;;;;;;5004463;28;20590;-34
2023/01/14 10:01:31;;;;;;;3.70;0.95;;;6.70;99.90;;;;;;5007760;28;20049;-38
2023/01/14 10:04:25;;;;;;;7.15;1.48;;;6.70;99.90;;;;;;5006665;28;20565;-36
2023/01/14 10:06:55;;;;;;;4.03;0.93;;;6.70;99.90;;;;;;5007685;28;20045;-35
2023/01/14 10:09:28;;;;;;;5.95;1.10;;;6.80;99.90;;;;;;5006945;28;20042;-35
2023/01/14 10:11:57;;;;;;;2.47;0.93;;;6.80;99.90;;;;;;5004925;28;20038;-34
2023/01/14 10:14:34;;;;;;;2.72;0.65;;;6.80;99.90;;;;;;5000602;28;20034;-36
2023/01/14 10:17:11;;;;;;;3.60;0.90;;;6.90;99.90;;;;;;5003458;28;20503;-36
2023/01/14 10:19:45;;;;;;;3.72;0.88;;;6.90;99.90;;;;;;5010508;28;20041;-34
2023/01/14 10:22:38;;;;;;;2.45;0.77;;;6.90;99.90;;;;;;5009744;28;20050;-35
2023/01/14 10:25:16;;;;;;;5.40;0.90;;;6.90;99.90;;;;;;5007270;28;20042;-35
2023/01/14 10:27:46;;;;;;;3.55;1.00;;;6.90;99.90;;;;;;5003790;28;20077;-35
2023/01/14 10:30:23;;;;;;;4.10;1.00;;;7.00;99.90;;;;;;5007187;28;20589;-35
2023/01/14 10:32:51;;;;;;;1.95;0.52;;;7.00;99.90;;;;;;5006426;28;20446;-36
2023/01/14 10:35:26;;;;;;;7.38;1.00;;;7.00;99.90;;;;;;5006602;28;20112;-36
2023/01/14 10:37:52;;;;;;;6.10;0.82;;;7.00;99.90;;;;;;5000585;28;20058;-37
2023/01/14 10:40:23;;;;;;;3.38;0.80;;;7.00;99.90;;;;;;5014051;28;20086;-35
2023/01/14 10:42:50;;;;;;;2.72;1.30;;;7.00;99.90;;;;;;5013517;28;20048;-35
2023/01/14 10:45:16;;;;;;;4.28;0.80;;;7.00;99.90;;;;;;5013567;28;20048;-36
2023/01/14 10:47:49;;;;;;;4.53;0.90;;;7.10;99.90;;;;;;5013583;28;20046;-35
2023/01/14 10:50:25;;;;;;;3.30;0.75;;;7.10;99.90;;;;;;5012564;28;20104;-35
2023/01/14 10:52:52;;;;;;;4.22;1.00;;;7.20;99.90;;;;;;5007214;28;20289;-36
2023/01/14 10:55:22;;;;;;;3.92;1.05;;;7.20;99.90;;;;;;5014749;28;20048;-35
2023/01/14 10:58:06;;;;;;;5.28;0.90;;;7.20;99.90;;;;;;5010281;28;20495;-35
2023/01/14 11:00:42;;;;;;;4.18;1.00;;;7.20;99.90;;;;;;5012737;28;20030;-36
2023/01/14 11:03:20;;;;;;;3.92;1.10;;;7.20;99.90;;;;;;5007323;28;20034;-35
2023/01/14 11:05:58;;;;;;;3.20;0.80;;;7.20;99.90;;;;;;5009908;28;20529;-38
2023/01/14 11:08:33;;;;;;;6.07;1.08;;;7.30;99.90;;;;;;5006915;28;20665;-36
2023/01/14 11:11:07;;;;;;;3.47;0.88;;;7.30;99.90;;;;;;5010546;28;20509;-36
2023/01/14 11:13:48;;;;;;;4.13;0.98;;;7.30;99.90;;;;;;5004650;28;20529;-35
2023/01/14 11:16:25;;;;;;;3.05;0.70;;;7.30;99.90;;;;;;5002933;28;20077;-36
2023/01/14 11:18:59;;;;;;;3.90;0.90;;;7.30;99.90;;;;;;5000839;28;20507;-37
2023/01/14 11:21:29;;;;;;;5.03;0.80;;;7.30;99.90;;;;;;5005357;28;20104;-35
2023/01/14 11:24:03;;;;;;;1.92;0.73;;;7.30;99.90;;;;;;5008240;28;20050;-36
2023/01/14 11:26:31;;;;;;;4.47;1.30;;;7.40;99.90;;;;;;5012111;28;20045;-35
2023/01/14 11:29:21;;;;;;;5.32;0.80;;;7.40;99.90;;;;;;5008955;28;20054;-38
2023/01/14 11:31:50;;;;;;;2.67;0.57;;;7.40;99.90;;;;;;5009189;28;20046;-36
2023/01/14 11:34:29;;;;;;;2.55;0.68;;;7.40;99.90;;;;;;5008485;28;20087;-37
2023/01/14 11:37:08;;;;;;;3.97;0.60;;;7.50;99.90;;;;;;5013117;28;20042;-35
2023/01/14 11:39:35;;;;;;;4.95;0.70;;;7.50;99.90;;;;;;5011809;28;20046;-40
2023/01/14 11:42:20;;;;;;;4.72;1.15;;;7.50;99.90;;;;;;5015238;28;20507;-36
2023/01/14 11:45:03;;;;;;;4.03;0.70;;;7.50;99.90;;;;;;5007481;28;20491;-36
2023/01/14 11:47:30;;;;;;;2.95;0.40;;;7.60;99.90;;;;;;5011214;28;20048;-35
2023/01/14 11:50:19;;;;;;;3.33;0.80;;;7.60;99.90;;;;;;5009977;28;20038;-38
2023/01/14 11:53:06;;;;;;;1.60;0.40;;;7.60;99.90;;;;;;5010599;28;20507;-36
2023/01/14 11:55:38;;;;;;;4.28;0.85;;;7.70;99.90;;;;;;5010192;28;20100;-37
2023/01/14 11:58:28;;;;;;;3.17;0.80;;;7.70;99.90;;;;;;5002434;28;20034;-36
2023/01/14 12:01:04;;;;;;;6.03;0.82;;;7.70;99.90;;;;;;5000353;28;20758;-35
2023/01/14 12:03:50;;;;;;;6.30;1.27;;;7.80;99.90;;;;;;5003730;28;20503;-36
2023/01/14 12:06:23;;;;;;;2.42;0.60;;;7.80;99.90;;;;;;5008543;28;20072;-36
2023/01/14 12:08:56;;;;;;;1.75;0.73;;;7.90;99.90;;;;;;5005993;28;20034;-35
2023/01/14 12:11:30;;;;;;;6.47;0.60;;;7.90;99.90;;;;;;5011441;28;20312;-36
2023/01/14 12:16:59;;;;;;;2.35;0.43;;;8.00;99.90;;;;;;5006664;28;20073;-35
2023/01/14 12:19:34;;;;;;;2.05;0.65;;;8.00;99.90;;;;;;5010833;28;20045;-35
2023/01/14 12:22:24;;;;;;;2.50;0.60;;;8.00;99.90;;;;;;4996039;28;20055;-37
2023/01/14 12:25:39;;;;;;;1.45;0.35;;;8.10;99.90;;;;;;5006105;28;20042;-35
2023/01/14 12:28:29;;;;;;;0.93;0.30;;;8.10;99.90;;;;;;5000529;28;20050;-35
2023/01/14 12:31:09;;;;;;;3.28;0.30;;;8.20;99.90;;;;;;5007252;28;20121;-35
2023/01/14 12:33:46;;;;;;;1.58;0.40;;;8.30;99.90;;;;;;5007938;28;20042;-35
2023/01/14 12:36:47;;;;;;;0.70;0.40;;;8.40;99.90;;;;;;4992356;28;20128;-38
2023/01/14 12:45:44;;;;;;;3.55;0.43;;;8.50;99.90;;;;;;4986604;28;20046;-36
2023/01/14 12:48:13;;;;;;;0.43;0.10;;;8.60;99.90;;;;;;4988383;28;20034;-35
2023/01/14 12:50:50;;;;;;;1.35;0.20;;;8.60;99.90;;;;;;4987925;28;20124;-35
2023/01/14 12:53:27;;;;;;;3.85;0.38;;;8.70;99.90;;;;;;4989059;28;20055;-35
2023/01/14 12:55:56;;;;;;;0.65;0.20;;;8.70;99.90;;;;;;4967857;28;20073;-38
2023/01/14 12:58:26;;;;;;;0.20;0.10;;;8.70;99.90;;;;;;4984707;28;20042;-36
2023/01/14 13:01:00;;;;;;;1.52;0.20;;;8.90;99.90;;;;;;4984184;28;20038;-37
2023/01/14 13:03:46;;;;;;;0.90;0.10;;;8.80;99.90;;;;;;4985220;28;20038;-35
2023/01/14 13:06:35;;;;;;;0.40;0.20;;;8.90;99.90;;;;;;4987626;28;20038;-36
2023/01/14 13:09:03;;;;;;;0.52;0.20;;;9.00;99.90;;;;;;4975315;28;20057;-36
2023/01/14 13:11:43;;;;;;;0.77;0.20;;;9.00;99.90;;;;;;4985171;28;20034;-37
2023/01/14 13:14:37;;;;;;;0.45;0.20;;;9.10;99.90;;;;;;4987183;28;20041;-35
2023/01/14 13:17:35;;;;;;;0.80;0.22;;;9.10;99.90;;;;;;4986845;28;20573;-37
2023/01/14 13:20:06;;;;;;;2.67;0.15;;;9.10;99.90;;;;;;4968935;28;20046;-36
2023/01/14 13:22:46;;;;;;;0.28;0.10;;;9.20;99.90;;;;;;4971218;28;20547;-36
2023/01/14 13:25:37;;;;;;;0.68;0.28;;;9.20;99.90;;;;;;4987663;28;20049;-36
2023/01/14 13:28:18;;;;;;;1.23;0.40;;;9.30;99.90;;;;;;4984045;28;20057;-38
2023/01/14 13:30:58;;;;;;;0.47;0.20;;;9.30;99.90;;;;;;4965304;28;20404;-36
2023/01/14 13:33:24;;;;;;;0.60;0.20;;;9.30;99.90;;;;;;4988628;28;20038;-38
2023/01/14 13:36:08;;;;;;;2.05;0.45;;;9.40;99.90;;;;;;4988183;28;20563;-36
2023/01/14 13:38:41;;;;;;;0.80;0.30;;;9.40;99.90;;;;;;4983976;28;20042;-37
2023/01/14 13:41:09;;;;;;;1.25;0.20;;;9.40;99.90;;;;;;4987818;28;20502;-36
2023/01/14 13:43:50;;;;;;;0.88;0.20;;;9.40;99.90;;;;;;4986378;28;20070;-36
2023/01/14 13:46:33;;;;;;;2.53;0.20;;;9.40;99.90;;;;;;4978831;28;20038;-35
2023/01/14 13:49:01;;;;;;;0.30;0.15;;;9.50;99.90;;;;;;4994838;28;20049;-37
2023/01/14 13:51:48;;;;;;;0.75;0.10;;;9.50;99.90;;;;;;4978154;28;20104;-38